x

9410230 - La Jolla, Ca (ljac1) Weather Station

1:12 - Tue 30th May 2017 All times are PDT. -7 hours from GMT.

  • Wind
    7mph, 8mph gusts
  • Sea Temp 63°f
  • Luft Temp 63°f
  • Sea Pressure 1012.5mb
  • 9410230 - La Jolla, Ca
  • 9410230 - La Jolla, Ca

More Historic Weather Station data

Upgrade to MSW Pro to gain access to the past 30 days of data for over 8000 Wavebouys and Weather Stations around the globe.

Join Pro

Comparision Forecast

View Surf forecast
   
Di 05/30 1:12 7 8 mph 1012.5mb 63f 63f
1:06 6 9 mph 1012.5mb 63f 63f
1:00 3 6 mph 1012.5mb 63f 63f
12:54 6 9 mph 1012.6mb 63f 63f
12:48 6 7 mph 1012.5mb 63f 63f
12:42 5 6 mph 1012.6mb 63f 63f
12:36 5 9 mph 1012.7mb 63f 63f
12:30 7 8 mph 1012.8mb 62f 63f
12:24 6 6 mph 1012.8mb 63f 63f
12:18 5 6 mph 1013mb 63f 63f
12:12 7 7 mph 1013mb 63f 63f
12:06 7 10 mph 1013mb 62f 63f
12:00 8 9 mph 1013mb 62f 63f
Mo 05/29 11:54 6 8 mph 1013.1mb 62f 63f
11:48 3 6 mph 1013mb 62f 63f
11:42 5 8 mph 1013mb - -
11:36 6 8 mph 1013mb - -
11:30 5 7 mph 1013.2mb 62f 63f
11:24 6 7 mph 1013.2mb 62f 63f
11:18 3 7 mph 1013.2mb 62f 63f
11:12 5 7 mph 1013.3mb 62f 63f
11:06 5 7 mph 1013.3mb 62f 63f
11:00 5 7 mph 1013.3mb 62f 63f
10:54 6 9 mph 1013.3mb 62f 63f
10:48 6 8 mph 1013.3mb 61f 63f
10:42 8 9 mph - - -
10:36 7 9 mph - - -
10:30 7 8 mph 1013.3mb 60f 63f
10:24 6 8 mph 1013.3mb 61f 63f
10:18 8 9 mph 1013.3mb 62f 63f
10:12 6 8 mph 1013.2mb 62f 63f
10:06 7 9 mph 1013.2mb 62f 63f
10:00 7 9 mph 1013.1mb 62f 63f
9:54 5 7 mph 1013.1mb 62f 63f
9:48 7 8 mph 1013mb 62f 63f
9:42 6 7 mph 1013mb 62f 63f
9:36 8 10 mph 1012.9mb 62f 63f
9:30 5 7 mph 1012.9mb 62f 63f
9:24 5 8 mph 1012.8mb 62f 63f
9:18 6 7 mph 1012.8mb 62f 63f
9:12 6 8 mph 1012.7mb 61f 63f
9:06 7 9 mph 1012.6mb 60f 63f
9:00 6 9 mph 1012.5mb 60f 63f
8:54 6 8 mph 1012.5mb 60f 63f
8:48 5 6 mph 1012.4mb 60f 63f
8:42 3 6 mph 1012.3mb 62f 63f
8:36 6 6 mph 1012.4mb 62f 62f
8:30 5 8 mph 1012.3mb 63f 63f
8:24 8 9 mph 1012.4mb 63f 63f
8:18 7 9 mph 1012.3mb 63f 63f
8:12 5 7 mph 1012.2mb 63f 63f
8:06 5 7 mph 1012.1mb 63f 63f
8:00 5 7 mph 1012.1mb 63f 63f
7:54 6 8 mph 1012.1mb 63f 63f
7:48 7 9 mph 1012.1mb 63f 63f
7:42 7 8 mph 1012.1mb 63f 63f
7:36 7 9 mph 1012mb 62f 63f
7:30 7 8 mph 1011.9mb 60f 63f
7:24 7 9 mph 1011.8mb 60f 63f
7:18 8 9 mph - - -
7:12 7 9 mph 1011.7mb 62f 63f
7:06 7 8 mph 1011.7mb 63f 63f
7:00 6 9 mph 1011.7mb 63f 63f
6:48 7 9 mph - - -
6:42 7 9 mph 1011.4mb 63f 63f
6:36 7 9 mph 1011.4mb 63f 63f
6:30 8 9 mph 1011.4mb 63f 63f
6:24 8 10 mph 1011.4mb 63f 63f
6:18 7 10 mph 1011.4mb 63f 63f
6:12 9 10 mph 1011.4mb 63f 63f
6:06 9 10 mph 1011.3mb 63f 63f
6:00 9 10 mph 1011.4mb 63f 63f
5:48 9 10 mph - - -
5:42 9 10 mph 1011.5mb 63f 64f
5:36 8 10 mph 1011.5mb 63f 64f
5:30 9 9 mph 1011.5mb 63f -
5:24 9 10 mph 1011.4mb 63f 64f
5:18 8 9 mph 1011.4mb 63f 64f
5:12 8 11 mph 1011.4mb 63f 64f
5:06 8 10 mph 1011.5mb 63f 64f
5:00 8 9 mph 1011.5mb 63f -
4:54 7 8 mph 1011.5mb 63f 64f
4:48 8 8 mph - - -
4:42 7 8 mph 1011.5mb 63f 64f
4:36 7 8 mph 1011.6mb 63f 64f
4:30 7 8 mph 1011.7mb - -
4:24 6 8 mph 1011.7mb 63f 64f
4:18 7 8 mph 1011.7mb 63f 64f
4:12 7 8 mph 1011.7mb 63f 64f
4:06 6 7 mph 1011.8mb 63f 64f
4:00 6 7 mph 1011.8mb 64f -
3:54 6 6 mph 1011.8mb 64f 64f
3:48 6 6 mph - - -
3:42 5 6 mph 1012.1mb 64f 64f
3:36 5 6 mph 1012.1mb 63f 64f
3:30 6 7 mph 1012.3mb 63f -
3:24 5 6 mph 1012.3mb 63f 64f
3:18 3 6 mph - - -
3:12 5 6 mph 1012.4mb 63f 65f
3:06 5 7 mph 1012.5mb 63f 64f
3:00 6 7 mph 1012.5mb 63f 64f
2:54 6 7 mph 1012.7mb 63f 64f
2:48 6 7 mph - - -
2:42 5 7 mph 1012.7mb 62f 64f
2:36 6 8 mph 1012.8mb 62f 64f
2:30 6 7 mph 1012.8mb 62f 64f
2:24 6 7 mph 1013mb 62f 64f
2:18 5 7 mph 1013mb 62f 64f
2:12 5 6 mph 1013.1mb 62f 65f
2:06 5 6 mph 1013.1mb 62f 65f
2:00 3 5 mph 1013.2mb 62f 65f
1:54 3 5 mph 1013.3mb 62f 65f
1:48 2 3 mph 1013.2mb 61f 65f
1:42 3 3 mph 1013.2mb 61f 64f
1:36 2 5 mph 1013.2mb 60f 64f
1:30 3 5 mph 1013.3mb 60f 64f
1:24 2 5 mph 1013.4mb 60f 64f
1:18 2 3 mph 1013.4mb 60f 63f
1:12 2 6 mph 1013.5mb 60f 63f
1:06 3 6 mph 1013.6mb 60f 63f
1:00 6 6 mph 1013.6mb 59f 62f
12:54 5 6 mph 1013.6mb 58f 62f
12:48 5 6 mph 1013.6mb 57f 62f
12:42 5 6 mph 1013.7mb 56f 62f
12:36 5 6 mph 1013.7mb 56f 62f
12:30 6 7 mph 1013.7mb 56f 62f
12:24 6 7 mph 1013.8mb 56f 62f
12:18 6 7 mph 1013.7mb 56f 62f
12:12 7 8 mph 1013.7mb 56f 62f
12:06 7 8 mph 1013.7mb 56f 62f
12:00 7 8 mph 1013.7mb 55f 62f
11:54 6 9 mph 1013.6mb 55f 62f
11:48 7 9 mph 1013.6mb 55f 62f
11:42 6 7 mph 1013.5mb 56f 62f
11:36 7 7 mph 1013.6mb 57f 62f
11:30 6 7 mph 1013.6mb 56f 63f
11:24 6 6 mph 1013.6mb 57f 63f
11:18 5 5 mph 1013.6mb 57f 63f
11:12 3 5 mph 1013.7mb 57f 63f
11:06 3 5 mph 1013.6mb 58f 64f
11:00 2 3 mph 1013.6mb 57f 64f
10:54 2 2 mph 1013.6mb 56f 64f
10:48 1 2 mph 1013.5mb 56f 64f
10:42  -  1 mph 1013.6mb 56f 64f
10:36  -  1 mph 1013.6mb 56f 63f
10:30  -  2 mph 1013.6mb 56f 63f
10:24 1 2 mph 1013.6mb 57f 63f
10:18 2 3 mph 1013.6mb 57f 63f
10:12 2 3 mph 1013.6mb 57f 63f
10:06 2 3 mph 1013.6mb 58f 63f
10:00 2 2 mph 1013.6mb 58f 63f
9:54 1 2 mph 1013.5mb 58f 63f
9:48 1 1 mph - - -
9:42 2 3 mph 1013.6mb 58f 63f
9:36 2 2 mph 1013.5mb 59f 63f
9:30 1 2 mph 1013.5mb 60f 63f
9:24  -  1 mph 1013.3mb 59f 63f
9:18  -  0 mph - - -
9:12  -  1 mph 1013.3mb 59f 63f
9:06 1 3 mph 1013.2mb 59f 62f
9:00 2 3 mph 1013.2mb 59f 62f
8:54 3 3 mph 1013.1mb 58f 62f
8:48 3 3 mph 1013.1mb 58f 62f
8:42 2 2 mph 1013.1mb 58f 62f
8:36 2 2 mph 1013.1mb 59f 62f
8:30 2 2 mph 1013.1mb 61f 62f
8:24 2 2 mph 1013.1mb 61f 62f
8:18 2 5 mph 1013.1mb 61f 62f
8:12 3 5 mph 1013mb 61f 62f
8:06 3 3 mph 1013mb 61f 62f
8:00  -  0 mph 1012.9mb 61f 63f
7:54  -  2 mph 1012.9mb 60f 63f
7:48 2 3 mph 1012.9mb 60f 62f
7:42 2 2 mph 1012.9mb 59f 62f
7:36 2 3 mph 1012.9mb 59f 62f
7:30 2 3 mph 1012.8mb 59f 62f
7:24 3 3 mph 1012.7mb 58f 62f
7:18 2 5 mph 1012.7mb 58f 62f
7:12 3 5 mph 1012.7mb 58f 62f
7:06 2 3 mph 1012.6mb 59f 62f
7:00 2 5 mph 1012.6mb 60f 62f
6:54 3 5 mph 1012.6mb 60f 62f
6:48 2 3 mph 1012.6mb 60f 62f
6:42 2 3 mph 1012.8mb 61f 62f
6:36 2 3 mph 1012.7mb 60f 62f
6:30 3 5 mph 1012.7mb 60f 62f
6:24 3 3 mph 1012.8mb 60f 62f
6:18 3 6 mph 1012.7mb 60f 62f
6:12 3 3 mph 1012.6mb 60f 62f
6:06 2 5 mph 1012.6mb 60f 62f
6:00 5 7 mph 1012.5mb 59f 62f
5:54 5 6 mph 1012.6mb 59f 62f
5:48 3 6 mph 1012.6mb 59f 62f
5:42 2 5 mph 1012.6mb 59f 62f
5:36 1 2 mph 1012.7mb 60f 62f
5:30 2 5 mph 1012.7mb 60f 62f
5:24 3 5 mph 1012.7mb 62f 62f
5:18 3 5 mph 1012.7mb 62f 62f
5:12 5 6 mph 1012.8mb 62f 62f
5:06 3 5 mph 1012.8mb 63f 62f
5:00 3 3 mph 1012.8mb 62f 62f
4:54 1 3 mph 1012.8mb 63f 62f
4:48 3 5 mph 1012.8mb 63f 62f
4:42 3 5 mph 1012.8mb 63f 62f
4:36 3 5 mph 1012.8mb 63f 62f
4:30 1 2 mph 1012.9mb 63f 62f
4:24 1 3 mph 1012.8mb 63f 62f
4:18 1 3 mph 1012.8mb 62f 62f
4:12 3 7 mph 1012.8mb 62f 62f
4:06 2 3 mph 1012.9mb 62f 62f
4:00 2 2 mph 1012.9mb 62f 62f
3:54 2 3 mph 1012.9mb 62f 62f
3:48 2 7 mph 1012.9mb 62f 62f
3:42 3 7 mph 1013mb 61f 62f
3:36 3 6 mph 1013mb 61f 62f
3:30 6 6 mph 1013mb 61f 62f
3:24 5 6 mph 1013mb 62f 62f
3:18 5 6 mph 1013mb 61f 62f
3:12 2 3 mph 1013mb 61f 62f
3:06 2 3 mph 1013mb 60f 62f
3:00  -  3 mph 1012.9mb 59f 62f
2:54 2 3 mph 1013mb 59f 62f
2:48 2 3 mph 1013mb 58f 62f
2:42 1 3 mph 1013.1mb 57f 62f
2:36 2 3 mph 1013.1mb 57f 62f
2:30 2 3 mph 1013.3mb 57f 62f
2:24 2 3 mph 1013.4mb 56f 62f
2:18 2 5 mph 1013.3mb 56f 62f
2:12 2 5 mph 1013.4mb 56f 62f
2:06 3 3 mph 1013.5mb 56f 62f
2:00 1 3 mph 1013.6mb 56f 62f
1:54 2 5 mph 1013.6mb 56f 62f
1:48 5 6 mph 1013.6mb 58f 62f
1:42 5 6 mph 1013.7mb 58f 62f
1:36 3 3 mph 1013.8mb 59f 62f
1:30 2 3 mph 1013.8mb 60f 62f
1:24 3 5 mph 1013.9mb 60f 62f
1:18 2 3 mph 1014mb 60f 62f
1:12 2 2 mph 1014mb 60f 62f
1:06 3 5 mph 1014.2mb 59f 62f
1:00 3 6 mph 1014.3mb 59f 62f
12:54 3 6 mph 1014.3mb 59f 63f
12:48 1 2 mph - 60f 63f
12:42  -  0 mph - 60f 63f
12:36  -  3 mph - 61f 63f
12:30 3 3 mph 1014.3mb 61f 63f
12:24  -  2 mph 1014.3mb 62f 63f
12:18 1 2 mph 1014.4mb 61f 62f
12:12 2 2 mph 1014.5mb 61f 63f
12:06  -  1 mph 1014.5mb 62f 62f
12:00  -  5 mph 1014.4mb 61f 62f
So 05/28 11:54 5 7 mph 1014.6mb 60f 62f
11:48 5 6 mph 1014.6mb 59f 63f
11:42 5 7 mph 1014.7mb - -
11:36 3 6 mph 1014.9mb - -
11:30  -  2 mph 1015mb 59f 63f
11:24 2 3 mph 1015.1mb 59f 63f
11:18 3 5 mph 1015mb 58f 63f
11:12 2 3 mph 1015mb 58f 63f
11:06 5 6 mph 1015mb 58f 63f
11:00 5 6 mph 1014.9mb 58f 63f
10:54 5 6 mph 1014.9mb 57f 63f
10:48 3 5 mph 1015mb 57f 63f
10:42 2 3 mph 1014.9mb 57f -
10:36 2 2 mph 1014.9mb 57f -
10:30 1 3 mph 1014.9mb 57f 63f
10:24 1 2 mph 1015mb 57f 63f
10:18 1 2 mph 1015mb 57f 63f
10:12 3 3 mph 1015mb 57f 63f
10:06 3 5 mph 1015mb 57f 63f
10:00 5 6 mph 1015.1mb 57f 63f
9:54 3 7 mph 1015.1mb 58f 63f
9:48 5 6 mph 1015.1mb 58f 63f
9:42 5 6 mph 1015mb 58f 63f
9:36 5 6 mph 1015mb 59f 63f
9:30 2 6 mph 1015mb 59f 63f
9:24 3 6 mph 1014.9mb 59f 63f
9:18 5 7 mph 1014.9mb 60f 63f
9:12 5 6 mph 1014.8mb 61f 63f
9:06 2 3 mph 1014.9mb 59f 63f
9:00 3 5 mph 1014.9mb 59f 63f
8:54 2 6 mph 1014.9mb 59f 63f
8:48 6 7 mph 1014.8mb 59f 63f
8:42 6 7 mph 1014.8mb 59f 63f
8:36 7 8 mph 1014.9mb 60f 63f
8:30 5 7 mph 1014.8mb 60f 63f
8:24 6 8 mph 1014.7mb 60f 63f
8:18 6 9 mph 1014.6mb 60f 63f
8:12 7 8 mph 1014.5mb 60f 63f
8:06 6 8 mph 1014.5mb 60f 64f
8:00 6 7 mph 1014.5mb 61f 64f
7:54 3 9 mph 1014.4mb 61f 63f
7:48 6 7 mph 1014.5mb 63f 64f
7:42 3 5 mph 1014.5mb 63f 64f
7:36 3 6 mph 1014.4mb 64f 64f
7:30 6 9 mph 1014.4mb 64f 64f
7:24 6 8 mph 1014.4mb 64f 64f
7:18 2 5 mph 1014.4mb 64f 64f
7:12 3 7 mph 1014.4mb 64f 64f
7:06 5 7 mph 1014.4mb 64f 64f
7:00 7 9 mph 1014.3mb 64f 64f
6:54 3 5 mph 1014.3mb 64f 64f
6:48 5 8 mph - - -
6:42 5 6 mph 1014.3mb 63f 64f
6:36 7 9 mph 1014.3mb 63f 64f
6:30 5 7 mph 1014.3mb 63f -
6:24 6 7 mph 1014.4mb 63f 64f
6:18 6 9 mph - - -
6:12 3 6 mph 1014.4mb 62f 64f
6:06 6 9 mph 1014.5mb 62f 64f
6:00 5 8 mph 1014.5mb 61f 64f
5:54 6 8 mph 1014.5mb 62f 64f
5:48 5 9 mph - - -
5:42 7 8 mph 1014.4mb 61f 64f
5:36 5 6 mph 1014.5mb 62f 64f
5:30 3 8 mph 1014.5mb - -
5:24 6 8 mph 1014.6mb 63f 64f
5:18 6 7 mph - - -
5:12 5 8 mph 1014.6mb 64f 64f
5:06 7 8 mph 1014.7mb 64f 64f
5:00 6 8 mph 1014.8mb - -
4:54 7 8 mph 1014.8mb 64f 64f
4:48 6 8 mph 1014.8mb 64f 65f
4:42 5 8 mph 1014.9mb 64f 65f
4:36 5 6 mph 1015mb 64f 65f
4:30 3 8 mph 1015mb 64f -
4:24 6 8 mph 1015mb 64f 65f
4:18 6 8 mph - - -
4:12 7 9 mph 1015.1mb 64f 65f
4:00 7 9 mph 1015.3mb - -
3:54 6 8 mph 1015.3mb 63f 65f
3:48 6 8 mph - - -
3:42 6 8 mph 1015.4mb 63f 65f
3:36 6 8 mph 1015.5mb 63f 65f
3:30 7 9 mph 1015.4mb 63f 65f
3:24 7 8 mph 1015.5mb 63f 64f
3:18 7 9 mph 1015.5mb 64f 64f
3:12 7 9 mph 1015.6mb 64f 65f
3:06 7 9 mph 1015.7mb 63f 65f
3:00 8 10 mph 1015.8mb - -
2:54 8 11 mph 1015.9mb 63f 64f
2:48 9 11 mph - - -
2:42 9 11 mph 1015.9mb 62f 65f
2:36 8 10 mph 1016mb 62f 65f
2:30 8 10 mph 1016mb 62f 65f
2:24 8 10 mph 1015.9mb 62f 65f
2:18 8 11 mph 1015.9mb 62f 65f
2:12 9 11 mph 1015.9mb 62f 65f
2:06 9 11 mph 1015.9mb 62f 65f
2:00 9 11 mph 1016mb 60f 65f
1:54 7 10 mph 1016.1mb 59f 65f
1:48 8 10 mph 1016.1mb 58f 65f
1:42 8 10 mph 1016.1mb 57f 65f
1:36 9 11 mph 1016.1mb 56f 65f
1:30 8 11 mph 1016.2mb 56f 65f
1:24 8 11 mph 1016.2mb 56f 65f
1:18 8 11 mph - - -
1:12 8 9 mph 1016.2mb 56f 65f
1:06 8 10 mph 1016.3mb 55f 65f
1:00 9 11 mph 1016.3mb 55f 65f
12:54 9 10 mph 1016.3mb 55f 65f
12:48 8 10 mph 1016.2mb 55f 65f
12:42 7 9 mph 1016.2mb 56f 65f
12:36 8 10 mph 1016.2mb 56f 65f
12:30 8 11 mph 1016.3mb 56f 65f
12:24 7 10 mph 1016.3mb 56f 65f
12:18 7 10 mph 1016.3mb 56f 65f
12:12 8 10 mph 1016.3mb 57f 65f
12:06 8 10 mph 1016.3mb 57f 64f
12:00 9 10 mph 1016.4mb 58f 64f
11:54 7 9 mph 1016.4mb 60f 65f
11:48 7 9 mph 1016.4mb 62f 65f
11:42 7 9 mph 1016.4mb 62f 65f
11:36 7 8 mph 1016.3mb 63f 65f
11:30 6 8 mph 1016.3mb 63f 65f
11:24 6 7 mph 1016.3mb 63f 65f
11:18 6 8 mph 1016.3mb 63f 65f
11:12 6 7 mph 1016.3mb 62f 64f
11:06 5 6 mph 1016.2mb 62f 64f
11:00 6 7 mph 1016.1mb 62f 64f
10:54 6 7 mph 1016.2mb 60f 64f
10:48 5 6 mph 1016.2mb 58f 64f
10:42 6 6 mph 1016.2mb 58f 64f
10:36 6 6 mph 1016.3mb 58f 64f
10:30 5 6 mph 1016.3mb 57f 64f
10:24 6 7 mph 1016.3mb 58f 64f
10:18 6 7 mph 1016.3mb 58f 64f
10:12 5 7 mph 1016.3mb 58f 64f
10:06 6 6 mph 1016.3mb 58f 64f
10:00 6 7 mph 1016.4mb 58f 63f
9:54 6 7 mph 1016.4mb 58f 63f
9:48 6 6 mph 1016.5mb 59f 63f
9:42 6 6 mph 1016.5mb 59f 63f
9:36 6 6 mph 1016.6mb 59f 63f
9:30 6 6 mph 1016.7mb 60f 63f
9:24 6 6 mph 1016.7mb 60f 63f
9:18 6 6 mph - - -
9:12 6 6 mph 1016.7mb 60f 62f
9:06 6 6 mph 1016.6mb 59f 62f
9:00 6 6 mph 1016.6mb 58f 62f
8:54 6 6 mph 1016.6mb 57f 62f
8:48 5 6 mph 1016.6mb 57f 62f
8:42 6 7 mph 1016.5mb 56f 62f
8:36 6 8 mph 1016.5mb 56f 62f
8:30 6 7 mph 1016.5mb 56f 62f
8:24 6 7 mph 1016.4mb 57f 62f
8:18 6 7 mph 1016.4mb 57f 62f
8:12 6 7 mph 1016.4mb 57f 62f
8:06 6 7 mph 1016.4mb 57f 62f
8:00 5 6 mph 1016.4mb 57f 62f
7:54 5 5 mph 1016.4mb 57f 62f
7:48 3 5 mph 1016.4mb 58f 62f
7:42 3 5 mph 1016.4mb 58f 62f
7:36 3 6 mph 1016.4mb 58f 62f
7:30 2 5 mph 1016.3mb 58f 62f
7:24 3 3 mph 1016.2mb 59f 62f
7:18 3 5 mph 1016.2mb 60f 62f
7:12 3 5 mph 1016.1mb 61f 62f
7:06 3 5 mph 1016mb 61f 62f
7:00 3 5 mph 1016mb 62f 62f
6:54 3 3 mph 1016mb 62f 62f
6:48 3 5 mph - - -
6:42 3 5 mph 1015.9mb 60f 62f
6:36 3 3 mph 1015.9mb 60f 62f
6:30 2 3 mph 1015.9mb 60f 62f
6:24 2 3 mph 1015.8mb 59f 62f
6:18 2 3 mph 1015.7mb 59f 62f
6:12 2 5 mph 1015.7mb 59f 62f
6:06 3 5 mph 1015.7mb 60f 62f
6:00 3 3 mph 1015.6mb 60f 62f
5:54 2 3 mph 1015.6mb 60f 62f
5:48 1 2 mph 1015.6mb 61f 62f
5:42 2 2 mph 1015.6mb 62f 62f
5:36 2 3 mph 1015.5mb 62f 62f
5:30 3 5 mph 1015.4mb 62f 62f
5:24 3 5 mph 1015.4mb 62f 62f
5:18 3 3 mph 1015.4mb 62f 62f
5:12 3 3 mph 1015.3mb 62f 62f
5:06 2 3 mph 1015.3mb 61f 62f
5:00 2 3 mph 1015.3mb 61f 62f
4:54 3 3 mph 1015.3mb 60f 62f
4:48 3 3 mph 1015.3mb 60f 62f
4:42 3 3 mph 1015.2mb 61f 62f
4:36 3 3 mph 1015.3mb 60f 62f
4:30 2 3 mph 1015.3mb 60f 62f
4:24 2 2 mph 1015.3mb 60f 62f
4:18 2 3 mph 1015.2mb 60f 62f
4:12 3 5 mph 1015.2mb 62f 62f
4:06 3 5 mph 1015.3mb 63f 62f
4:00 5 6 mph 1015.2mb 63f 63f
3:54 5 5 mph 1015.2mb 63f 63f
3:48 5 6 mph 1015.2mb 62f 63f
3:42 5 6 mph 1015.2mb 62f 63f
3:36 5 5 mph 1015.3mb 61f 63f
3:30 3 5 mph 1015.5mb 60f 63f
3:24 3 5 mph 1015.5mb 60f 63f
3:18 5 5 mph 1015.5mb 62f 63f
3:12 3 5 mph 1015.5mb 63f 62f
3:06  -  2 mph 1015.6mb 64f 62f
3:00 1 2 mph 1015.6mb 64f 62f
2:54 1 3 mph 1015.6mb 64f 62f
2:48 2 3 mph 1015.7mb 63f 62f
2:42 2 2 mph 1015.7mb 63f 62f
2:36  -  2 mph 1015.8mb 63f 62f
2:30 2 2 mph 1015.8mb 63f 62f
2:24 2 2 mph 1015.9mb 63f 62f
2:18 1 1 mph - - -
2:12 1 2 mph 1015.9mb 64f 62f
2:06 1 1 mph 1016mb 63f 62f
2:00  -  2 mph 1016mb 63f 62f
1:54  -  1 mph 1016mb 63f 62f
1:48  -  1 mph - - -
1:42  -  1 mph 1016.2mb 62f 61f
1:36  -  2 mph 1016.2mb 62f 61f
1:30 1 1 mph 1016.2mb 61f 61f
1:24  -  1 mph 1016.3mb 61f 61f
1:18  -  2 mph 1016.3mb 60f 62f
1:12 2 2 mph 1016.3mb 60f 62f
1:06  -  1 mph 1016.3mb 59f 61f
1:00  -  1 mph 1016.4mb 60f 61f
12:54 1 1 mph 1016.4mb 60f 61f
12:48  -  1 mph 1016.5mb 61f 61f
12:42 1 1 mph 1016.5mb 61f 61f
12:36  -  1 mph 1016.5mb 63f 62f
12:30  -  2 mph 1016.5mb 63f 62f
12:24 1 2 mph 1016.5mb 63f 62f
12:18 1 2 mph 1016.5mb 63f 62f
12:12 2 2 mph 1016.5mb 63f 62f
12:06 1 2 mph 1016.5mb 62f 62f
12:00 2 3 mph 1016.5mb 62f 62f
Sa 05/27 11:54 2 2 mph 1016.6mb 62f 62f
11:48 2 3 mph 1016.6mb 63f 62f
11:42 2 3 mph 1016.7mb 63f 62f
11:36 2 2 mph 1016.7mb 63f 62f
11:30 2 3 mph 1016.8mb 63f 62f
11:24 2 3 mph 1016.8mb 63f 62f
11:18 2 3 mph 1016.8mb 62f 62f
11:12 3 3 mph 1016.8mb 63f 62f
11:06 3 5 mph 1016.8mb 63f 62f
11:00 3 5 mph 1016.8mb 63f 62f
10:54 5 5 mph 1016.8mb 63f 62f
10:48 3 5 mph - - -
10:42 3 5 mph 1016.8mb 62f 62f
10:36 3 3 mph 1016.8mb 62f 62f
10:30 3 3 mph 1016.8mb 62f 63f
10:24 3 5 mph 1016.8mb 63f 63f
10:18 3 5 mph 1016.8mb 63f 63f
10:12 3 7 mph 1016.7mb 63f 63f
10:06 6 6 mph 1016.7mb 63f 63f
10:00 5 6 mph 1016.7mb 63f 63f
9:54 6 6 mph 1016.7mb 63f 63f
9:48 5 6 mph 1016.7mb 63f 63f
9:42 5 6 mph 1016.6mb 63f 63f
9:36 5 6 mph 1016.6mb 62f 63f
9:30 5 6 mph 1016.6mb 62f 63f
9:24 6 6 mph 1016.5mb 61f 63f
9:18 5 6 mph 1016.5mb 61f 63f
9:12 5 6 mph 1016.5mb 61f 63f
9:06 6 7 mph 1016.5mb 62f 63f
9:00 6 7 mph 1016.5mb 61f 63f
8:54 6 7 mph 1016.6mb 62f 63f
8:48 6 8 mph - - -
8:42 6 8 mph 1016.6mb 63f 63f
8:36 6 8 mph 1016.5mb 63f 63f
8:30 6 8 mph 1016.5mb 63f 63f
8:24 6 8 mph 1016.5mb 63f 63f
8:18 6 8 mph 1016.5mb 63f 63f
8:12 7 8 mph 1016.5mb 63f 63f
8:06 7 8 mph 1016.5mb 63f 63f
8:00 7 8 mph 1016.5mb 63f 63f
7:54 7 9 mph 1016.5mb 63f 63f
7:48 7 9 mph 1016.4mb 63f 63f
7:42 7 9 mph 1016.5mb 63f 63f
7:36 8 9 mph 1016.5mb 63f 63f
7:30 6 9 mph 1016.5mb 64f 63f
7:24 7 8 mph 1016.5mb 64f 63f
7:18 7 8 mph - - -
7:12 7 8 mph 1016.5mb 64f 63f
7:06 8 9 mph 1016.5mb 64f 63f
7:00 8 10 mph 1016.5mb 64f 64f
6:54 8 10 mph 1016.5mb 64f 64f
6:48 8 9 mph 1016.5mb 64f 64f
6:42 8 9 mph 1016.6mb 64f 64f
6:36 8 10 mph 1016.6mb 64f 64f
6:30 8 10 mph - 64f -
6:24 8 10 mph - 64f 64f
6:18 9 10 mph - - -
6:12 8 11 mph 1016.5mb 64f 64f
6:06 10 11 mph 1016.6mb 64f 64f
6:00 9 10 mph 1016.6mb 64f -
5:54 10 13 mph 1016.7mb 64f 64f
5:48 11 13 mph - - -
5:42 9 13 mph 1016.8mb 64f 64f
5:36 9 11 mph 1016.8mb 64f 64f
5:30 10 11 mph 1016.9mb 64f 64f
5:24 10 11 mph 1017mb 64f 64f
5:18 10 11 mph 1017mb 64f 64f
5:12 9 11 mph 1017mb 64f 64f
5:06 10 13 mph 1017mb 64f 64f
5:00 11 13 mph 1016.9mb - -
4:54 10 13 mph 1016.9mb 64f 64f
4:48 11 14 mph - - -
4:42 11 14 mph 1016.9mb 63f 64f
4:36 11 14 mph 1016.9mb 63f 64f
4:30 10 14 mph 1016.9mb - -
4:24 13 14 mph 1016.9mb 64f 64f
4:12 11 14 mph 1016.9mb 63f 65f
4:06 11 14 mph 1016.9mb 63f 65f
4:00 13 15 mph 1017mb 64f 64f
3:54 11 14 mph 1017.1mb 63f 64f
3:48 10 15 mph 1017.1mb 63f 65f
3:42 13 15 mph 1017.1mb 64f 64f
3:36 11 14 mph 1017.1mb 64f 65f
3:30 11 14 mph 1017.2mb 63f -
3:24 10 13 mph 1017.2mb 62f 65f
3:18 9 14 mph - - -
3:12 11 14 mph 1017.2mb 61f 65f
3:06 11 14 mph 1017.2mb 60f 65f
3:00 10 14 mph 1017.2mb 60f -
2:54 11 14 mph 1017.2mb 60f 65f
2:48 11 15 mph - - -
2:42 11 14 mph 1017.2mb 60f 65f
2:36 11 14 mph 1017.2mb 60f 65f
2:30 11 14 mph 1017.3mb 60f 65f
2:24 11 14 mph 1017.3mb 60f 65f
2:18 10 14 mph 1017.4mb 60f 65f
2:12 13 15 mph 1017.3mb 60f 65f
2:06 11 14 mph 1017.3mb 61f 65f
2:00 13 15 mph 1017.4mb 62f 64f
1:54 13 16 mph 1017.4mb 63f 65f
1:48 11 15 mph 1017.4mb 64f 64f
1:42 11 15 mph 1017.5mb 64f 64f
1:36 11 15 mph 1017.5mb 64f 65f
1:30 13 16 mph 1017.6mb 64f 64f
1:24 14 16 mph 1017.6mb 64f 64f
1:18 13 16 mph 1017.7mb 64f 64f
1:12 14 16 mph 1017.6mb 64f 64f
1:06 13 15 mph 1017.7mb 64f 65f
1:00 11 14 mph 1017.7mb 63f 65f
12:54 13 14 mph 1017.7mb 63f 65f
12:48 11 14 mph 1017.8mb 63f 65f
12:42 13 15 mph 1017.7mb 63f 65f
12:36 10 13 mph 1017.8mb 63f 65f
12:30 10 13 mph 1017.8mb 63f 65f
12:24 10 11 mph 1017.8mb 63f 65f
12:18 10 13 mph 1017.8mb 63f 65f
12:12 10 13 mph 1017.8mb 63f 65f
12:06 9 11 mph 1017.9mb 63f 65f
12:00 10 10 mph 1017.9mb 63f 65f
11:54 9 10 mph 1017.9mb 63f 65f
11:48 9 10 mph 1017.9mb 63f 65f
11:42 9 11 mph 1017.8mb 63f 65f
11:36 9 10 mph 1017.8mb 63f 65f
11:30 8 9 mph 1017.8mb 63f 65f
11:24 9 10 mph 1017.8mb 63f 65f
11:18 10 10 mph 1017.8mb 63f 64f
11:12 9 10 mph 1017.8mb 63f 64f
11:06 9 10 mph 1017.9mb 62f 64f
11:00 8 10 mph 1017.8mb 62f 64f
10:54 9 10 mph 1017.8mb 62f 64f
10:48 9 10 mph - - -
10:42 9 10 mph 1017.7mb 63f 64f
10:36 9 10 mph 1017.7mb 63f 64f
10:30 9 11 mph 1017.7mb 62f 64f
10:24 10 11 mph 1017.8mb 62f 64f
10:18 10 11 mph 1017.8mb 60f 64f
10:12 9 10 mph 1017.7mb 60f 64f
10:06 9 10 mph 1017.7mb 60f 64f
10:00 9 10 mph 1017.7mb 60f 64f
9:54 9 10 mph 1017.6mb 60f 64f
9:48 9 10 mph 1017.6mb 59f 64f
9:42 8 10 mph 1017.6mb 59f 64f
9:36 9 10 mph 1017.6mb 58f 64f
9:30 9 10 mph 1017.5mb 58f 64f
9:24 9 9 mph 1017.5mb 57f 64f
9:18 9 10 mph 1017.6mb 57f 64f
9:12 8 10 mph 1017.6mb 56f 64f
9:06 9 10 mph 1017.6mb 56f 64f
9:00 9 10 mph 1017.6mb 56f 64f
8:54 8 9 mph 1017.5mb 56f 64f
8:48 8 8 mph 1017.5mb 56f 64f
8:42 6 8 mph 1017.4mb 56f 64f
8:36 5 6 mph 1017.4mb 56f 64f
8:30 5 6 mph 1017.3mb 56f 64f
8:24 5 6 mph 1017.2mb 56f 64f
8:18 5 6 mph 1017.2mb 57f 64f
8:12 5 6 mph 1017.1mb 57f 64f
8:06 6 6 mph 1017mb 57f 64f
8:00 5 6 mph 1017mb 57f 64f
7:54 5 6 mph 1017mb 57f 64f
7:48 5 6 mph 1016.9mb 57f 64f
7:42 6 7 mph 1016.9mb 57f 64f
7:36 6 7 mph 1016.8mb 57f 63f
7:30 6 6 mph 1016.8mb 57f 63f
7:24 5 6 mph 1016.7mb 58f 63f
7:18 5 6 mph 1016.7mb 58f 63f
7:12 6 7 mph 1016.6mb 58f 63f
7:06 6 7 mph 1016.5mb 58f 63f
7:00 6 6 mph 1016.4mb 58f 63f
6:54 6 7 mph 1016.3mb 58f 63f
6:48 6 8 mph 1016.3mb 59f 63f
6:42 7 8 mph 1016.3mb 59f 63f
6:36 6 8 mph 1016.3mb 60f 63f
6:30 7 8 mph 1016.2mb 59f 63f
6:24 7 7 mph 1016.2mb 60f 63f
6:18 5 6 mph 1016.1mb 60f 63f
6:12 5 7 mph 1016mb 60f 63f
6:06 5 7 mph 1015.9mb 60f 63f
6:00 5 6 mph 1015.8mb 61f 63f
5:54 3 5 mph 1015.8mb 61f 63f
5:48 5 6 mph 1015.7mb 62f 63f
5:42 5 6 mph 1015.6mb 62f 63f
5:36 3 7 mph 1015.6mb 62f 63f
5:30 5 6 mph 1015.5mb 62f 63f
5:24 6 7 mph 1015.5mb 62f 63f
5:18 6 7 mph 1015.5mb 62f 64f
5:12 7 8 mph 1015.4mb 62f 64f
5:06 7 8 mph 1015.4mb 62f 64f
5:00 6 8 mph 1015.4mb 63f 63f
4:54 8 9 mph 1015.3mb 63f 63f
4:48 5 6 mph 1015.3mb 63f 63f
4:42 3 5 mph 1015.3mb 63f 63f
4:36 3 5 mph 1015.3mb 63f 63f
4:30 5 6 mph 1015.3mb 64f 63f
4:24 5 6 mph 1015.3mb 64f 64f
4:18 5 6 mph 1015.3mb 64f 64f
4:12 5 7 mph 1015.3mb 64f 64f
4:06 5 6 mph 1015.3mb 64f 64f
4:00 6 7 mph 1015.3mb 64f 64f
3:54 7 8 mph 1015.3mb 64f 64f
3:48 7 8 mph 1015.3mb 64f 64f
3:42 7 8 mph 1015.4mb 64f 64f
3:36 7 8 mph 1015.4mb 64f 64f
3:30 7 8 mph 1015.4mb 64f 64f
3:24 3 5 mph 1015.5mb 64f 64f
3:18 3 5 mph 1015.5mb 64f 64f
3:12 5 6 mph 1015.6mb 64f 64f
3:06 5 7 mph 1015.7mb 64f 64f
3:00 6 8 mph 1015.7mb 64f 64f
2:54 7 8 mph 1015.6mb 64f 64f
2:48 8 9 mph 1015.7mb 64f 64f
2:42 8 8 mph 1015.7mb 64f 64f
2:36 7 8 mph 1015.7mb 64f 64f
2:30 7 8 mph 1015.7mb 64f 64f
2:24 8 9 mph 1015.7mb 64f 64f
2:18 9 9 mph 1015.7mb 64f 64f
2:12 9 10 mph 1015.8mb 64f 64f
2:06 8 9 mph 1015.8mb 64f 64f
2:00 9 9 mph 1015.9mb 64f 64f
1:54 8 9 mph 1016mb 64f 64f
1:48 8 9 mph 1016mb 64f 64f
1:42 8 8 mph 1016.1mb 64f 64f
1:36 7 8 mph 1016.1mb 64f 64f
1:30 7 8 mph 1016.1mb 64f 64f
1:24 7 8 mph 1016.2mb 64f 64f
1:18 7 8 mph 1016.2mb 64f 64f
1:12 7 8 mph 1016.2mb 64f 64f
1:06 6 7 mph 1016.3mb 64f 64f
1:00 7 8 mph 1016.3mb 64f 64f
12:54 6 7 mph 1016.3mb 64f 64f
12:48 6 7 mph 1016.4mb 63f 64f
12:42 5 6 mph 1016.4mb 63f 63f
12:36  -  1 mph 1016.4mb 63f 63f
12:30  -  2 mph 1016.5mb 63f 63f
12:24 1 2 mph 1016.4mb 63f 63f
12:18 1 2 mph 1016.4mb 63f 63f
12:12  -  1 mph 1016.4mb 63f 63f
12:06  -  2 mph 1016.4mb 63f 63f
12:00  -  1 mph 1016.4mb 63f 63f
Fr 05/26 11:54  -  1 mph 1016.4mb 63f 63f
11:48  -  1 mph 1016.4mb 63f 63f
11:42 1 2 mph - - -
11:36 1 2 mph - - -
11:30 2 2 mph 1016.4mb 63f 64f
11:24 2 3 mph 1016.4mb 63f 64f
11:18 2 3 mph 1016.4mb 63f 64f
11:12 2 3 mph 1016.4mb 63f 64f
11:06 3 3 mph 1016.4mb 63f 64f
11:00 3 5 mph 1016.4mb 63f 64f
10:54 5 5 mph 1016.4mb 63f 64f
10:48 5 6 mph 1016.4mb 62f 64f
10:42 5 6 mph 1016.3mb 62f 64f
10:36 5 6 mph 1016.3mb 62f 64f
10:30 5 7 mph 1016.2mb 61f 64f
10:24 6 7 mph 1016.2mb 60f 64f
10:18 6 7 mph 1016.2mb 58f 64f
10:12 6 7 mph 1016.1mb 56f 64f
10:06 6 7 mph 1016.1mb 55f 64f
10:00 6 6 mph 1016mb 56f 64f
9:54 3 5 mph 1016mb 58f 64f
9:48 2 3 mph - - -
9:42 2 3 mph 1015.8mb 61f 64f
9:36 2 3 mph 1015.8mb 62f 64f
9:30 3 3 mph 1015.7mb 63f 64f
9:24 3 5 mph 1015.6mb 63f 64f
9:18 3 6 mph 1015.6mb 63f 64f
9:12 5 6 mph 1015.5mb 64f 64f
9:06 6 6 mph 1015.5mb 64f 64f
9:00 6 7 mph 1015.5mb 64f 64f
8:54 6 7 mph 1015.4mb 64f 65f
8:48 6 7 mph 1015.4mb 64f 65f
8:42 6 7 mph 1015.4mb 64f 65f
8:36 7 7 mph 1015.4mb 64f 65f
8:30 7 7 mph 1015.4mb 64f 65f
8:24 5 6 mph 1015.3mb 64f 65f
8:18 6 6 mph 1015.3mb 64f 65f
8:12 6 6 mph 1015.2mb 64f 65f
8:06 6 7 mph 1015.2mb 64f 65f
8:00 6 7 mph 1015.2mb 64f 65f
7:54 7 7 mph 1015.1mb 64f 65f
7:48 6 7 mph 1015.1mb 64f 65f
7:42 6 7 mph 1015.1mb 64f 65f
7:36 7 7 mph 1015.2mb 64f 65f
7:30 6 6 mph 1015.2mb 64f 65f
7:24 6 6 mph 1015.1mb 64f 65f
7:18 6 7 mph 1015.1mb 64f 65f
7:12 6 6 mph 1015.1mb 64f 65f
7:06 6 7 mph 1015mb 64f 65f
7:00 6 7 mph 1015mb 64f 65f
6:54 5 7 mph 1015mb 64f 66f
6:48 6 7 mph - - -
6:42 6 7 mph 1015.1mb 64f 66f
6:36 6 7 mph 1015.1mb 64f 66f
6:30 6 8 mph 1015.1mb 64f 66f
6:24 6 7 mph 1015.1mb 65f 66f
6:18 5 8 mph 1015mb 64f 66f
6:12 6 8 mph 1015mb 64f 66f
6:06 6 8 mph 1015mb 64f 66f
6:00 6 8 mph 1015mb 65f 66f
5:54 6 7 mph 1014.9mb 65f 66f
5:48 6 8 mph - - -
5:42 6 9 mph 1014.9mb 64f 67f
5:36 6 9 mph 1014.9mb 64f 67f
5:30 8 9 mph 1014.9mb 64f -
5:24 8 9 mph 1014.9mb 64f 66f
5:18 7 9 mph - - -
5:12 8 9 mph 1014.9mb 64f 66f
5:06 7 9 mph 1014.9mb 64f 67f
5:00 6 8 mph 1014.9mb 64f 67f
4:54 7 9 mph 1014.9mb 64f 67f
4:48 6 8 mph 1014.9mb 64f 67f
4:42 7 10 mph 1014.9mb 64f 67f
4:36 7 10 mph 1014.9mb 64f 67f
4:30 9 10 mph 1014.9mb 64f 67f
4:24 7 9 mph 1015mb 64f 67f
4:18 6 8 mph - - -
4:12 8 9 mph 1015mb 63f 67f
4:06 7 8 mph 1015mb 63f 67f
4:00 6 9 mph 1015mb 64f 67f
3:54 6 8 mph 1015mb 63f 68f
3:48 6 8 mph 1015.1mb 64f 67f
3:42 7 8 mph 1015.1mb 63f 67f
3:36 6 9 mph 1015.2mb 64f 67f
3:30 7 8 mph 1015.2mb 63f 67f
3:24 6 7 mph 1015.3mb 62f 67f
3:18 6 7 mph - - -
3:12 5 7 mph 1015.4mb 60f 67f
3:06 6 8 mph 1015.4mb 58f 67f
3:00 6 6 mph 1015.5mb 58f 67f
2:54 6 7 mph 1015.5mb 59f 67f
2:48 6 7 mph 1015.5mb 58f 67f
2:42 6 7 mph 1015.4mb 58f 67f
2:36 6 7 mph 1015.5mb 57f 66f
2:30 7 8 mph 1015.5mb 57f 66f
2:24 7 8 mph 1015.6mb 56f 66f
2:18 7 8 mph 1015.6mb 57f 66f
2:12 8 9 mph 1015.6mb 56f 66f
2:06 8 8 mph 1015.7mb 57f 66f
2:00 7 8 mph 1015.7mb 57f 66f
1:54 8 9 mph 1015.8mb 57f 66f
1:48 8 9 mph 1015.7mb 57f 66f
1:42 8 9 mph 1015.8mb 57f 66f
1:36 7 9 mph 1015.8mb 58f 66f
1:30 8 9 mph 1015.8mb 59f 66f
1:24 8 10 mph 1015.8mb 58f 66f
1:18 9 10 mph 1015.8mb 60f 66f
1:12 8 10 mph 1015.8mb 60f 66f
1:06 9 10 mph 1015.8mb 60f 66f
1:00 9 11 mph 1015.8mb 60f 66f
12:54 10 11 mph 1015.8mb 60f 66f
12:48 11 11 mph 1015.8mb 61f 65f
12:42 10 11 mph 1015.7mb 61f 66f
12:36 9 10 mph 1015.7mb 61f 66f
12:30 10 10 mph 1015.7mb 61f 66f
12:24 9 10 mph 1015.6mb 61f 66f
12:18 9 10 mph 1015.5mb 61f 66f
12:12 9 10 mph 1015.5mb 61f 66f
12:06 9 10 mph 1015.4mb 61f 66f
12:00 8 8 mph 1015.4mb 61f 66f
11:54 7 8 mph 1015.3mb 61f 66f
11:48 7 7 mph 1015.3mb 61f 65f
11:42 7 8 mph 1015.3mb 61f 65f
11:36 8 10 mph 1015.3mb 61f 65f
11:30 9 10 mph 1015.3mb 61f 65f
11:24 9 10 mph 1015.3mb 61f 65f
11:18 10 11 mph 1015.2mb 61f 65f
11:12 10 11 mph 1015.2mb 61f 65f
11:06 10 11 mph 1015.2mb 61f 65f
11:00 10 11 mph 1015.1mb 61f 65f
10:54 10 10 mph 1015.1mb 62f 65f
10:48 9 10 mph 1015.1mb 62f 65f
10:42 9 9 mph 1015.1mb 62f 66f
10:36 7 8 mph 1015.1mb 62f 66f
10:30 8 9 mph 1015.1mb 62f 66f
10:24 8 9 mph 1015.1mb 61f 66f
10:18 7 9 mph 1015.1mb 61f 66f
10:12 7 8 mph 1015.1mb 62f 66f
10:06 7 9 mph 1015mb 62f 66f
10:00 8 9 mph 1015mb 62f 66f
9:54 7 8 mph 1015mb 62f 66f
9:48 7 8 mph 1015mb 62f 66f
9:42 6 7 mph 1015mb 61f 66f
9:36 6 7 mph 1015mb 61f 66f
9:30 6 7 mph 1014.9mb 61f 66f
9:24 6 7 mph 1014.9mb 61f 66f